Time;durP1;ratioP1;P1;durP2;ratioP2;P2;SDS_P1;SDS_P2;PMS_P1;PMS_P2;Temp;Humidity;BMP_temperature;BMP_pressure;BME280_temperature;BME280_humidity;BME280_pressure;Samples;Min_cycle;Max_cycle;Signal;HPM_P1;HPM_P2
2022/04/12 00:00:36;;;;;;;7.80;3.80;;;;;;;;;;4964167;28;20049;-94
2022/04/12 00:03:02;;;;;;;10.77;4.30;;;;;;;;;;4964107;28;20042;-93
2022/04/12 00:05:28;;;;;;;12.38;4.28;;;;;;;;;;4979747;28;20038;-92
2022/04/12 00:07:54;;;;;;;9.05;4.57;;;;;;;;;;4964342;28;20045;-92
2022/04/12 00:10:20;;;;;;;7.90;4.72;;;;;;;;;;4963662;28;20078;-93
2022/04/12 00:12:47;;;;;;;9.55;4.53;;;;;;;;;;4963911;28;20486;-94
2022/04/12 00:15:13;;;;;;;8.25;4.43;;;;;;;;;;4964036;28;20042;-94
2022/04/12 00:20:26;;;;;;;9.70;4.25;;;;;;;;;;4979919;28;20054;-94
2022/04/12 00:22:52;;;;;;;9.75;4.47;;;;;;;;;;4963653;28;20133;-94
2022/04/12 00:25:22;;;;;;;8.95;4.75;;;;;;;;;;4980033;28;20504;-93
2022/04/12 00:27:48;;;;;;;8.82;4.78;;;;;;;;;;4947920;28;20042;-93
2022/04/12 00:30:14;;;;;;;9.25;4.80;;;;;;;;;;4964029;28;20035;-92
2022/04/12 00:32:40;;;;;;;9.70;5.03;;;;;;;;;;4963623;28;20451;-94
2022/04/12 00:35:06;;;;;;;10.70;5.00;;;;;;;;;;4979708;28;20038;-95
2022/04/12 00:37:32;;;;;;;11.27;5.28;;;;;;;;;;4963463;28;20513;-93
2022/04/12 00:39:59;;;;;;;9.98;5.30;;;;;;;;;;4965382;28;20042;-95
2022/04/12 00:42:25;;;;;;;12.68;5.10;;;;;;;;;;4983462;28;20062;-95
2022/04/12 00:44:51;;;;;;;10.55;5.20;;;;;;;;;;4979837;28;20052;-93
2022/04/12 00:47:17;;;;;;;8.95;4.88;;;;;;;;;;4979422;28;20062;-93
2022/04/12 00:49:43;;;;;;;10.50;5.43;;;;;;;;;;4963195;28;20097;-93
2022/04/12 00:52:09;;;;;;;9.35;5.60;;;;;;;;;;4962947;28;20038;-93
2022/04/12 00:54:39;;;;;;;11.40;5.95;;;;;;;;;;4963088;28;20478;-94
2022/04/12 00:57:06;;;;;;;11.32;5.63;;;;;;;;;;4962983;28;20125;-92
2022/04/12 00:59:32;;;;;;;12.50;5.75;;;;;;;;;;4963245;28;20096;-93
2022/04/12 01:01:58;;;;;;;13.23;5.60;;;;;;;;;;4963312;28;20046;-93
2022/04/12 01:04:25;;;;;;;9.90;5.45;;;;;;;;;;4964062;28;20039;-94
2022/04/12 01:06:51;;;;;;;11.77;6.75;;;;;;;;;;4962474;28;20511;-93
2022/04/12 01:09:18;;;;;;;9.05;5.63;;;;;;;;;;4962968;28;20038;-93
2022/04/12 01:11:48;;;;;;;12.02;6.07;;;;;;;;;;4962678;28;20038;-92
2022/04/12 01:14:15;;;;;;;12.07;5.93;;;;;;;;;;4963268;28;20482;-93
2022/04/12 01:16:41;;;;;;;10.07;5.82;;;;;;;;;;4978646;28;20046;-93
2022/04/12 01:19:07;;;;;;;12.02;6.10;;;;;;;;;;4962936;28;20398;-93
2022/04/12 01:21:36;;;;;;;9.68;5.90;;;;;;;;;;4979143;28;20042;-93
2022/04/12 01:24:06;;;;;;;11.77;6.35;;;;;;;;;;4963040;28;20078;-93
2022/04/12 01:26:32;;;;;;;9.95;6.65;;;;;;;;;;4962396;28;20402;-93
2022/04/12 01:28:58;;;;;;;11.20;6.32;;;;;;;;;;4963046;28;20038;-94
2022/04/12 01:31:25;;;;;;;11.75;6.45;;;;;;;;;;4962623;28;20367;-94
2022/04/12 01:33:52;;;;;;;10.57;7.00;;;;;;;;;;4978579;28;20044;-94
2022/04/12 01:36:18;;;;;;;11.05;6.05;;;;;;;;;;4961989;28;20038;-92
2022/04/12 01:38:44;;;;;;;11.90;6.85;;;;;;;;;;4962745;28;20068;-94
2022/04/12 01:41:10;;;;;;;12.50;6.65;;;;;;;;;;4962731;28;20389;-93
2022/04/12 01:43:36;;;;;;;12.52;7.60;;;;;;;;;;4962130;28;20096;-93
2022/04/12 01:46:03;;;;;;;12.75;6.60;;;;;;;;;;4962470;28;20042;-94
2022/04/12 01:48:30;;;;;;;13.73;6.90;;;;;;;;;;4959891;28;20062;-93
2022/04/12 01:50:56;;;;;;;12.48;7.10;;;;;;;;;;4962203;28;20111;-93
2022/04/12 01:53:22;;;;;;;12.50;7.15;;;;;;;;;;4960956;28;20043;-93
2022/04/12 01:55:48;;;;;;;12.68;7.05;;;;;;;;;;4962378;28;20042;-93
2022/04/12 01:58:14;;;;;;;13.20;7.05;;;;;;;;;;4961918;28;20097;-93
2022/04/12 02:00:42;;;;;;;10.30;7.13;;;;;;;;;;4961775;28;20042;-95
2022/04/12 02:03:08;;;;;;;12.70;7.85;;;;;;;;;;4961653;28;20042;-94
2022/04/12 02:05:34;;;;;;;12.55;7.43;;;;;;;;;;4962458;28;20038;-93
2022/04/12 02:08:00;;;;;;;13.60;8.02;;;;;;;;;;4962054;28;20390;-94
2022/04/12 02:10:26;;;;;;;12.68;7.50;;;;;;;;;;4961986;28;20041;-93
2022/04/12 02:12:53;;;;;;;13.40;7.40;;;;;;;;;;4962041;28;20561;-95
2022/04/12 02:15:19;;;;;;;12.32;7.38;;;;;;;;;;4946017;28;20109;-95
2022/04/12 02:17:45;;;;;;;12.68;7.50;;;;;;;;;;4961553;28;20092;-95
2022/04/12 02:20:11;;;;;;;12.90;7.10;;;;;;;;;;4961747;28;20046;-94
2022/04/12 02:22:37;;;;;;;12.52;7.32;;;;;;;;;;4961622;28;20536;-95
2022/04/12 02:25:04;;;;;;;12.15;7.40;;;;;;;;;;4962909;28;20136;-93
2022/04/12 02:27:32;;;;;;;12.63;7.85;;;;;;;;;;4961859;28;20050;-94
2022/04/12 02:29:58;;;;;;;12.75;7.75;;;;;;;;;;4961929;28;20474;-93
2022/04/12 02:32:24;;;;;;;11.32;7.72;;;;;;;;;;4961327;28;20038;-94
2022/04/12 02:34:50;;;;;;;11.55;7.13;;;;;;;;;;4961831;28;20065;-92
2022/04/12 02:37:16;;;;;;;13.27;7.15;;;;;;;;;;4961373;28;20054;-93
2022/04/12 02:39:42;;;;;;;12.02;7.72;;;;;;;;;;4961863;28;20402;-94
2022/04/12 02:42:08;;;;;;;12.13;7.22;;;;;;;;;;4977804;28;20057;-93
2022/04/12 02:44:34;;;;;;;11.88;6.97;;;;;;;;;;4977791;28;20042;-93
2022/04/12 02:47:00;;;;;;;10.93;7.05;;;;;;;;;;4961415;28;20184;-93
2022/04/12 02:49:26;;;;;;;12.98;7.65;;;;;;;;;;4961708;28;20081;-93
2022/04/12 02:51:52;;;;;;;12.52;7.85;;;;;;;;;;4961695;28;20088;-94
2022/04/12 02:54:18;;;;;;;12.43;8.25;;;;;;;;;;4961345;28;20045;-94
2022/04/12 02:56:44;;;;;;;11.65;7.75;;;;;;;;;;4961804;28;20049;-93
2022/04/12 02:59:10;;;;;;;13.20;7.85;;;;;;;;;;4961329;28;20042;-94
2022/04/12 03:01:37;;;;;;;14.20;7.75;;;;;;;;;;4978104;28;20056;-93
2022/04/12 03:04:03;;;;;;;13.98;7.20;;;;;;;;;;4960917;28;20085;-94
2022/04/12 03:06:29;;;;;;;11.45;7.55;;;;;;;;;;4961270;28;20413;-94
2022/04/12 03:08:55;;;;;;;12.43;7.90;;;;;;;;;;4977125;28;20038;-94
2022/04/12 03:11:21;;;;;;;12.98;7.95;;;;;;;;;;4945605;28;20088;-94
2022/04/12 03:13:48;;;;;;;14.65;9.00;;;;;;;;;;4961015;28;20081;-93
2022/04/12 03:16:15;;;;;;;14.43;9.27;;;;;;;;;;4961379;28;20046;-93
2022/04/12 03:18:41;;;;;;;15.30;8.57;;;;;;;;;;4960865;28;20048;-92
2022/04/12 03:21:07;;;;;;;13.52;8.57;;;;;;;;;;4961236;28;20078;-93
2022/04/12 03:23:33;;;;;;;11.93;8.13;;;;;;;;;;4961194;28;20053;-94
2022/04/12 03:25:59;;;;;;;13.05;8.13;;;;;;;;;;4977212;28;20096;-93
2022/04/12 03:28:25;;;;;;;14.48;9.48;;;;;;;;;;4976675;28;20092;-93
2022/04/12 03:30:51;;;;;;;14.85;8.63;;;;;;;;;;4961569;28;20138;-93
2022/04/12 03:33:17;;;;;;;16.70;8.65;;;;;;;;;;4960672;28;20060;-94
2022/04/12 03:35:43;;;;;;;13.02;8.38;;;;;;;;;;4961011;28;20529;-93
2022/04/12 03:38:09;;;;;;;14.18;9.23;;;;;;;;;;4960580;28;20181;-95
2022/04/12 03:40:35;;;;;;;13.63;8.13;;;;;;;;;;4961290;28;20046;-93
2022/04/12 03:43:02;;;;;;;12.98;8.60;;;;;;;;;;4960572;28;20038;-94
2022/04/12 03:45:29;;;;;;;14.35;8.48;;;;;;;;;;4961590;28;20050;-96
2022/04/12 03:47:55;;;;;;;15.35;8.50;;;;;;;;;;4961525;28;20054;-94
2022/04/12 03:50:22;;;;;;;13.93;8.75;;;;;;;;;;4960963;28;20078;-93
2022/04/12 03:52:49;;;;;;;16.67;9.90;;;;;;;;;;4960868;28;20078;-94
2022/04/12 03:55:15;;;;;;;14.52;9.05;;;;;;;;;;4960731;28;20157;-94
2022/04/12 03:57:41;;;;;;;15.45;10.05;;;;;;;;;;4961052;28;20054;-94
2022/04/12 04:00:08;;;;;;;16.77;9.63;;;;;;;;;;4960607;28;20042;-93
2022/04/12 04:02:35;;;;;;;13.20;8.60;;;;;;;;;;4976938;28;20141;-95
2022/04/12 04:05:01;;;;;;;15.18;9.35;;;;;;;;;;4976257;28;20054;-94
2022/04/12 04:07:27;;;;;;;15.05;9.60;;;;;;;;;;4960758;28;20509;-93
2022/04/12 04:09:54;;;;;;;16.08;9.52;;;;;;;;;;4960654;28;20043;-94
2022/04/12 04:12:20;;;;;;;15.00;9.00;;;;;;;;;;4976579;28;20065;-94
2022/04/12 04:14:47;;;;;;;15.23;10.15;;;;;;;;;;4960189;28;20045;-93
2022/04/12 04:17:13;;;;;;;13.18;9.10;;;;;;;;;;4963365;28;20112;-93
2022/04/12 04:19:39;;;;;;;13.60;8.73;;;;;;;;;;4963770;28;20132;-92
2022/04/12 04:22:05;;;;;;;12.95;8.70;;;;;;;;;;4964026;28;20049;-93
2022/04/12 04:24:31;;;;;;;15.68;9.25;;;;;;;;;;4963914;28;20155;-93
2022/04/12 04:26:58;;;;;;;12.27;8.45;;;;;;;;;;4964331;28;20049;-93
2022/04/12 04:29:27;;;;;;;15.70;10.02;;;;;;;;;;4963642;28;20045;-93
2022/04/12 04:31:53;;;;;;;14.90;8.93;;;;;;;;;;4964141;28;20074;-94
2022/04/12 04:34:19;;;;;;;15.55;9.05;;;;;;;;;;4963527;28;20045;-93
2022/04/12 04:36:45;;;;;;;13.95;9.48;;;;;;;;;;4963325;28;20088;-93
2022/04/12 04:39:11;;;;;;;15.63;9.40;;;;;;;;;;4963557;28;20057;-93
2022/04/12 04:41:37;;;;;;;14.40;9.35;;;;;;;;;;4963600;28;20050;-93
2022/04/12 04:44:03;;;;;;;15.23;9.45;;;;;;;;;;4963639;28;20080;-93
2022/04/12 04:46:29;;;;;;;14.18;9.30;;;;;;;;;;4963296;28;20144;-93
2022/04/12 04:48:55;;;;;;;15.75;9.07;;;;;;;;;;4963646;28;20038;-93
2022/04/12 04:51:21;;;;;;;16.65;9.48;;;;;;;;;;4979654;28;20057;-93
2022/04/12 04:53:56;;;;;;;14.15;9.38;;;;;;;;;;4963560;28;20038;-93
2022/04/12 04:56:22;;;;;;;13.60;9.23;;;;;;;;;;4963438;28;20085;-94
2022/04/12 04:58:48;;;;;;;15.32;10.10;;;;;;;;;;4963336;28;20043;-93
2022/04/12 05:01:14;;;;;;;16.48;9.80;;;;;;;;;;4963738;28;20047;-93
2022/04/12 05:03:40;;;;;;;14.40;9.25;;;;;;;;;;4962963;28;20437;-93
2022/04/12 05:06:06;;;;;;;16.63;9.75;;;;;;;;;;4963327;28;20486;-94
2022/04/12 05:08:32;;;;;;;17.30;9.90;;;;;;;;;;4979336;28;20038;-93
2022/04/12 05:10:58;;;;;;;17.20;10.10;;;;;;;;;;4963415;28;20046;-92
2022/04/12 05:13:24;;;;;;;12.95;9.27;;;;;;;;;;4962873;28;20399;-94
2022/04/12 05:15:50;;;;;;;15.13;9.60;;;;;;;;;;4962873;28;20034;-93
2022/04/12 05:18:16;;;;;;;15.35;10.25;;;;;;;;;;4963970;28;20133;-94
2022/04/12 05:20:43;;;;;;;14.95;10.23;;;;;;;;;;4963167;28;20069;-92
2022/04/12 05:23:09;;;;;;;15.35;9.90;;;;;;;;;;4962623;28;20069;-95
2022/04/12 05:25:36;;;;;;;15.20;10.43;;;;;;;;;;4963131;28;20042;-94
2022/04/12 05:28:02;;;;;;;16.33;9.98;;;;;;;;;;4962686;28;20125;-93
2022/04/12 05:30:29;;;;;;;16.02;9.80;;;;;;;;;;4962925;28;20050;-93
2022/04/12 05:32:54;;;;;;;14.32;9.80;;;;;;;;;;4962739;28;20049;-93
2022/04/12 05:35:21;;;;;;;13.88;9.52;;;;;;;;;;4978261;28;20046;-94
2022/04/12 05:37:48;;;;;;;14.38;9.70;;;;;;;;;;4962530;28;20042;-94
2022/04/12 05:40:15;;;;;;;14.32;10.32;;;;;;;;;;4962144;28;20039;-94
2022/04/12 05:42:41;;;;;;;18.27;10.52;;;;;;;;;;4962443;28;20054;-95
2022/04/12 05:45:08;;;;;;;16.17;10.55;;;;;;;;;;4961952;28;20049;-93
2022/04/12 05:47:49;;;;;;;14.68;10.50;;;;;;;;;;4967022;28;20514;-93
2022/04/12 05:50:16;;;;;;;17.08;10.23;;;;;;;;;;4943120;28;20468;-94
2022/04/12 05:52:44;;;;;;;17.40;10.85;;;;;;;;;;4943119;28;20121;-94
2022/04/12 05:55:10;;;;;;;18.05;9.75;;;;;;;;;;4943117;28;20035;-94
2022/04/12 05:58:03;;;;;;;15.77;11.13;;;;;;;;;;4961568;28;20038;-93
2022/04/12 06:00:33;;;;;;;14.95;10.40;;;;;;;;;;4942901;28;20402;-95
2022/04/12 06:02:59;;;;;;;17.17;10.85;;;;;;;;;;4942642;28;20108;-93
2022/04/12 06:05:28;;;;;;;14.70;9.88;;;;;;;;;;4942659;28;20478;-93
2022/04/12 06:07:54;;;;;;;17.17;10.55;;;;;;;;;;4942389;28;20043;-94
2022/04/12 06:10:20;;;;;;;16.45;10.85;;;;;;;;;;4942715;28;20049;-92
2022/04/12 06:12:47;;;;;;;13.73;10.43;;;;;;;;;;4942686;28;20042;-94
2022/04/12 06:15:13;;;;;;;20.10;10.68;;;;;;;;;;4942440;28;20043;-94
2022/04/12 06:17:39;;;;;;;16.27;10.52;;;;;;;;;;4943053;28;20050;-95
2022/04/12 06:20:09;;;;;;;16.40;10.60;;;;;;;;;;4942197;28;20138;-95
2022/04/12 06:22:35;;;;;;;15.90;11.20;;;;;;;;;;4942402;28;20039;-95
2022/04/12 06:25:01;;;;;;;16.10;10.75;;;;;;;;;;4945973;28;20039;-94
2022/04/12 06:27:31;;;;;;;19.27;10.90;;;;;;;;;;4943432;28;20074;-94
2022/04/12 06:29:58;;;;;;;20.38;11.15;;;;;;;;;;4958231;28;20045;-94
2022/04/12 06:32:25;;;;;;;14.68;10.23;;;;;;;;;;4950567;28;20121;-93
2022/04/12 06:34:51;;;;;;;15.27;10.27;;;;;;;;;;4976092;28;20100;-92
2022/04/12 06:37:18;;;;;;;14.70;9.63;;;;;;;;;;4961659;28;20406;-94
2022/04/12 06:39:44;;;;;;;15.40;10.48;;;;;;;;;;4963960;28;20046;-92
2022/04/12 06:42:10;;;;;;;15.10;9.75;;;;;;;;;;4968061;28;20050;-93
2022/04/12 06:44:39;;;;;;;18.25;10.98;;;;;;;;;;4967068;28;20092;-94
2022/04/12 06:47:05;;;;;;;18.60;11.30;;;;;;;;;;4972088;28;20081;-93
2022/04/12 06:49:31;;;;;;;18.05;10.68;;;;;;;;;;4963910;28;20051;-90
2022/04/12 06:51:57;;;;;;;16.40;10.38;;;;;;;;;;4962455;28;20046;-91
2022/04/12 06:54:27;;;;;;;15.70;10.55;;;;;;;;;;4969719;28;20054;-93
2022/04/12 06:56:54;;;;;;;17.83;10.13;;;;;;;;;;4965468;28;20054;-92
2022/04/12 06:59:20;;;;;;;16.48;10.90;;;;;;;;;;4975320;28;20137;-93
2022/04/12 07:01:46;;;;;;;15.73;10.75;;;;;;;;;;4978443;28;20936;-94
2022/04/12 07:04:12;;;;;;;14.20;10.30;;;;;;;;;;4966294;28;20046;-93
2022/04/12 07:06:38;;;;;;;16.63;10.38;;;;;;;;;;4963607;28;20058;-94
2022/04/12 07:09:05;;;;;;;15.95;10.52;;;;;;;;;;4970746;28;20044;-93
2022/04/12 07:11:31;;;;;;;15.10;10.73;;;;;;;;;;4960156;28;20045;-94
2022/04/12 07:19:09;;;;;;;16.98;11.75;;;;;;;;;;5701967;23;20058;-94
2022/04/12 07:21:36;;;;;;;16.08;10.52;;;;;;;;;;4996039;28;20119;-95
2022/04/12 07:24:05;;;;;;;18.52;10.88;;;;;;;;;;5001016;28;20041;-94
2022/04/12 07:26:34;;;;;;;16.05;10.95;;;;;;;;;;4996230;28;20092;-95
2022/04/12 07:29:00;;;;;;;16.42;10.73;;;;;;;;;;4994982;28;20048;-94
2022/04/12 07:31:27;;;;;;;16.27;10.15;;;;;;;;;;4999082;28;20096;-95
2022/04/12 07:33:53;;;;;;;16.77;10.68;;;;;;;;;;4975716;28;20561;-94
2022/04/12 07:36:19;;;;;;;16.83;10.25;;;;;;;;;;4999382;28;20041;-94
2022/04/12 07:38:45;;;;;;;15.73;10.48;;;;;;;;;;5019239;28;20053;-93
2022/04/12 07:41:11;;;;;;;15.73;10.45;;;;;;;;;;4995726;28;20069;-94
2022/04/12 07:43:38;;;;;;;18.38;10.60;;;;;;;;;;4997360;28;20061;-95
2022/04/12 07:46:04;;;;;;;15.85;10.13;;;;;;;;;;4973118;28;20049;-93
2022/04/12 07:48:31;;;;;;;15.02;10.07;;;;;;;;;;4998389;28;20057;-95
2022/04/12 07:50:57;;;;;;;14.23;9.93;;;;;;;;;;4994031;28;20038;-94
2022/04/12 07:53:23;;;;;;;16.10;10.90;;;;;;;;;;4999733;28;20491;-94
2022/04/12 07:55:49;;;;;;;16.70;10.63;;;;;;;;;;4993090;28;20034;-94
2022/04/12 08:01:00;;;;;;;15.55;10.77;;;;;;;;;;5255594;22;20136;-93
2022/04/12 08:03:26;;;;;;;16.63;10.85;;;;;;;;;;5017206;28;20051;-93
2022/04/12 08:05:52;;;;;;;14.38;10.32;;;;;;;;;;5012173;28;20106;-94
2022/04/12 08:08:19;;;;;;;15.50;10.40;;;;;;;;;;5016469;28;20038;-93
2022/04/12 08:10:45;;;;;;;16.63;11.43;;;;;;;;;;5010816;28;20088;-93
2022/04/12 08:13:11;;;;;;;15.05;10.40;;;;;;;;;;5015086;28;20038;-93
2022/04/12 08:15:37;;;;;;;17.25;10.48;;;;;;;;;;5017944;28;20140;-93
2022/04/12 08:18:04;;;;;;;17.50;10.93;;;;;;;;;;5014318;28;20037;-93
2022/04/12 08:20:30;;;;;;;15.57;10.68;;;;;;;;;;5016904;28;20075;-94
2022/04/12 08:22:56;;;;;;;19.17;9.85;;;;;;;;;;5013247;28;20183;-95
2022/04/12 08:25:22;;;;;;;20.50;10.63;;;;;;;;;;5016690;28;20041;-94
2022/04/12 08:27:48;;;;;;;15.70;11.15;;;;;;;;;;5011288;28;20045;-93
2022/04/12 08:30:14;;;;;;;15.23;10.27;;;;;;;;;;5015091;28;20044;-94
2022/04/12 08:32:40;;;;;;;15.65;10.48;;;;;;;;;;5022969;28;20042;-92
2022/04/12 08:35:07;;;;;;;16.52;10.30;;;;;;;;;;5014344;28;20038;-93
2022/04/12 08:37:33;;;;;;;16.23;10.70;;;;;;;;;;5034775;28;20064;-94
2022/04/12 08:40:00;;;;;;;13.30;9.52;;;;;;;;;;5014170;28;20387;-93
2022/04/12 08:42:44;;;;;;;14.25;9.77;;;;;;;;;;5018559;28;20048;-92
2022/04/12 08:45:11;;;;;;;13.68;9.52;;;;;;;;;;5031498;28;20041;-94
2022/04/12 08:47:37;;;;;;;14.98;10.07;;;;;;;;;;5018241;28;20047;-94
2022/04/12 08:50:05;;;;;;;14.45;10.00;;;;;;;;;;5030259;28;20112;-93
2022/04/12 08:52:36;;;;;;;12.25;9.82;;;;;;;;;;5036479;28;20041;-92
2022/04/12 08:55:02;;;;;;;14.95;9.80;;;;;;;;;;5039972;28;20034;-95
2022/04/12 08:57:36;;;;;;;13.98;9.60;;;;;;;;;;5030095;28;20107;-94
2022/04/12 09:00:22;;;;;;;16.13;10.05;;;;;;;;;;5039363;28;20054;-94
2022/04/12 09:05:44;;;;;;;13.65;9.40;;;;;;;;;;5026433;28;20067;-93
2022/04/12 09:11:54;;;;;;;13.15;8.80;;;;;;;;;;5008255;28;20131;-95
2022/04/12 09:15:03;;;;;;;13.90;9.93;;;;;;;;;;4976087;28;20049;-93
2022/04/12 09:17:51;;;;;;;14.18;9.38;;;;;;;;;;5042139;28;20045;-94
2022/04/12 09:20:19;;;;;;;11.75;8.77;;;;;;;;;;4965197;28;20062;-95
2022/04/12 09:22:48;;;;;;;12.80;9.27;;;;;;;;;;5013978;28;20053;-94
2022/04/12 09:25:21;;;;;;;12.65;8.77;;;;;;;;;;5042237;28;20046;-94
2022/04/12 09:27:49;;;;;;;15.15;9.25;;;;;;;;;;5024843;28;20041;-94
2022/04/12 09:30:15;;;;;;;11.77;8.73;;;;;;;;;;5018997;28;20045;-93
2022/04/12 09:32:49;;;;;;;13.88;9.32;;;;;;;;;;5017410;28;20080;-95
2022/04/12 09:35:16;;;;;;;14.18;9.13;;;;;;;;;;5030183;28;20041;-93
2022/04/12 09:37:44;;;;;;;14.10;10.23;;;;;;;;;;5017601;28;20046;-95
2022/04/12 09:40:11;;;;;;;13.45;9.32;;;;;;;;;;5017429;28;20095;-92
2022/04/12 09:42:54;;;;;;;14.63;9.90;;;;;;;;;;5034906;28;20056;-94
2022/04/12 09:45:20;;;;;;;13.43;9.40;;;;;;;;;;5034305;28;20064;-95
2022/04/12 09:47:50;;;;;;;15.50;9.35;;;;;;;;;;5009637;28;20485;-94
2022/04/12 09:50:16;;;;;;;11.63;9.38;;;;;;;;;;5017497;28;20495;-95
2022/04/12 09:52:54;;;;;;;13.43;8.75;;;;;;;;;;5017218;28;20072;-94
2022/04/12 09:55:37;;;;;;;14.07;9.73;;;;;;;;;;5033854;28;20041;-95
2022/04/12 09:58:03;;;;;;;12.30;8.80;;;;;;;;;;5028422;28;20111;-94
2022/04/12 10:00:35;;;;;;;12.35;9.10;;;;;;;;;;5017298;28;20057;-94
2022/04/12 10:03:02;;;;;;;12.80;9.27;;;;;;;;;;5012227;28;20060;-94
2022/04/12 10:05:28;;;;;;;12.98;9.02;;;;;;;;;;5018521;28;20460;-94
2022/04/12 10:07:58;;;;;;;19.10;9.98;;;;;;;;;;5012893;28;20068;-95
2022/04/12 10:10:33;;;;;;;13.83;8.67;;;;;;;;;;5021204;28;20080;-92
2022/04/12 10:12:59;;;;;;;13.68;9.35;;;;;;;;;;5011965;28;20130;-93
2022/04/12 10:15:26;;;;;;;14.45;8.98;;;;;;;;;;5033680;28;20037;-93
2022/04/12 10:17:53;;;;;;;13.13;9.70;;;;;;;;;;5010267;28;20047;-94
2022/04/12 10:20:19;;;;;;;12.02;9.45;;;;;;;;;;5034139;28;20068;-93
2022/04/12 10:22:46;;;;;;;13.90;9.23;;;;;;;;;;5009443;28;20084;-96
2022/04/12 10:25:15;;;;;;;13.95;9.75;;;;;;;;;;5018710;28;20099;-95
2022/04/12 10:27:41;;;;;;;13.57;9.82;;;;;;;;;;5033928;28;20060;-93
2022/04/12 10:30:26;;;;;;;13.90;9.77;;;;;;;;;;5017774;28;20038;-93
2022/04/12 10:33:05;;;;;;;12.70;9.80;;;;;;;;;;5011245;28;20033;-94
2022/04/12 10:35:47;;;;;;;16.23;9.98;;;;;;;;;;5033470;28;20037;-95
2022/04/12 10:38:13;;;;;;;13.57;9.77;;;;;;;;;;5029143;28;20480;-93
2022/04/12 10:40:45;;;;;;;14.88;9.88;;;;;;;;;;5033087;28;20128;-94
2022/04/12 10:43:12;;;;;;;17.42;10.50;;;;;;;;;;5012144;28;20097;-94
2022/04/12 10:45:48;;;;;;;13.60;10.52;;;;;;;;;;5034017;28;20049;-93
2022/04/12 10:48:20;;;;;;;15.68;10.30;;;;;;;;;;5013682;28;20111;-95
2022/04/12 10:50:48;;;;;;;17.45;10.68;;;;;;;;;;5009092;28;20049;-94
2022/04/12 10:53:14;;;;;;;14.18;9.95;;;;;;;;;;5016402;28;20041;-94
2022/04/12 10:55:45;;;;;;;12.73;9.15;;;;;;;;;;5016754;28;20048;-94
2022/04/12 10:58:17;;;;;;;14.10;9.40;;;;;;;;;;5174516;23;20071;-95
2022/04/12 11:00:43;;;;;;;15.20;9.90;;;;;;;;;;4994024;28;20081;-94
2022/04/12 11:03:09;;;;;;;14.15;10.15;;;;;;;;;;5016881;28;20048;-94
2022/04/12 11:05:46;;;;;;;13.00;10.00;;;;;;;;;;5018536;28;20378;-94
2022/04/12 11:08:16;;;;;;;15.70;9.65;;;;;;;;;;5018705;28;20053;-94
2022/04/12 11:11:04;;;;;;;13.63;10.18;;;;;;;;;;5003711;28;20037;-93
2022/04/12 11:13:31;;;;;;;15.55;10.77;;;;;;;;;;5016234;28;20426;-93
2022/04/12 11:16:03;;;;;;;15.88;10.32;;;;;;;;;;5000011;28;20041;-96
2022/04/12 11:18:45;;;;;;;28.52;10.65;;;;;;;;;;4998775;28;20591;-95
2022/04/12 11:21:11;;;;;;;13.32;9.77;;;;;;;;;;5004543;28;20077;-94
2022/04/12 11:23:51;;;;;;;14.82;10.57;;;;;;;;;;5015784;28;20128;-94
2022/04/12 11:26:37;;;;;;;15.43;10.27;;;;;;;;;;5003797;28;20075;-93
2022/04/12 11:29:10;;;;;;;14.27;9.73;;;;;;;;;;5006392;28;20048;-92
2022/04/12 11:32:02;;;;;;;15.13;10.60;;;;;;;;;;5011495;28;20041;-95
2022/04/12 11:34:29;;;;;;;14.82;10.57;;;;;;;;;;5011740;28;20080;-93
2022/04/12 11:36:56;;;;;;;14.18;10.80;;;;;;;;;;5007690;28;20140;-94
2022/04/12 11:39:27;;;;;;;15.95;10.38;;;;;;;;;;5000318;28;20049;-96
2022/04/12 11:42:04;;;;;;;13.77;10.05;;;;;;;;;;5000859;28;20042;-95
2022/04/12 11:44:35;;;;;;;12.82;10.05;;;;;;;;;;4985246;28;20057;-94
2022/04/12 11:47:11;;;;;;;15.35;10.23;;;;;;;;;;4990295;28;20038;-94
2022/04/12 11:50:00;;;;;;;15.32;9.88;;;;;;;;;;4986617;28;20038;-94
2022/04/12 11:52:47;;;;;;;15.60;9.93;;;;;;;;;;4986381;28;20061;-94
2022/04/12 11:55:20;;;;;;;14.38;10.68;;;;;;;;;;4996964;28;20033;-95
2022/04/12 12:01:13;;;;;;;13.73;9.15;;;;;;;;;;4953866;28;20050;-94
2022/04/12 12:03:41;;;;;;;15.40;8.77;;;;;;;;;;4987619;28;20042;-93
2022/04/12 12:06:10;;;;;;;15.13;10.35;;;;;;;;;;4986584;28;20125;-94
2022/04/12 12:08:41;;;;;;;13.07;8.98;;;;;;;;;;5000450;28;20076;-91
2022/04/12 12:11:16;;;;;;;15.73;9.10;;;;;;;;;;5009588;28;20042;-94
2022/04/12 12:19:53;;;;;;;13.15;9.82;;;;;;;;;;6048321;23;20024;-96
2022/04/12 12:22:27;;;;;;;14.90;9.95;;;;;;;;;;5004967;28;20054;-96
2022/04/12 12:41:02;;;;;;;15.55;9.70;;;;;;;;;;4842624;29;20054;-92
2022/04/12 12:43:42;;;;;;;15.90;9.45;;;;;;;;;;4845115;29;20044;-92
2022/04/12 12:46:33;;;;;;;14.45;9.27;;;;;;;;;;4932095;29;20051;-92
2022/04/12 12:49:20;;;;;;;14.10;9.13;;;;;;;;;;4989639;28;20050;-95
2022/04/12 12:51:52;;;;;;;15.25;10.38;;;;;;;;;;4989033;28;20042;-94
2022/04/12 12:54:28;;;;;;;;;;;;;;;;;;;;;
2022/04/12 13:00:24;;;;;;;;;;;;;;;;;;;;;
2022/04/12 13:03:22;;;;;;;15.55;9.85;;;;;;;;;;5007328;28;20098;-96
2022/04/12 13:06:00;;;;;;;17.95;10.40;;;;;;;;;;4978034;28;20045;-95
2022/04/12 13:08:38;;;;;;;18.65;9.75;;;;;;;;;;5007701;28;20048;-95
2022/04/12 13:11:26;;;;;;;20.25;11.55;;;;;;;;;;5010634;28;20134;-95
2022/04/12 13:13:57;;;;;;;21.13;10.40;;;;;;;;;;5005824;28;20092;-95
2022/04/12 13:16:26;;;;;;;19.30;10.95;;;;;;;;;;5009590;28;20096;-94
2022/04/12 13:19:33;;;;;;;;;;;;;;;;;;;;;
2022/04/12 13:30:11;;;;;;;15.60;9.73;;;;;;;;;;5020556;28;20042;-93
2022/04/12 13:32:42;;;;;;;19.40;11.15;;;;;;;;;;5006903;28;20042;-93
2022/04/12 13:35:08;;;;;;;15.27;9.63;;;;;;;;;;5003004;28;20038;-96
2022/04/12 13:37:34;;;;;;;18.13;10.98;;;;;;;;;;5019198;28;20037;-95
2022/04/12 13:40:01;;;;;;;15.55;10.25;;;;;;;;;;5019140;28;20129;-95
2022/04/12 13:42:27;;;;;;;16.55;10.88;;;;;;;;;;5019298;28;20125;-94
2022/04/12 13:45:23;;;;;;;;;;;;;;;;;;;;;
2022/04/12 13:51:01;;;;;;;22.15;11.55;;;;;;;;;;5009922;28;20520;-95
2022/04/12 13:53:41;;;;;;;20.23;11.57;;;;;;;;;;5024040;28;20544;-94
2022/04/12 13:56:29;;;;;;;;;;;;;;;;;;;;;
2022/04/12 13:59:08;;;;;;;18.95;11.43;;;;;;;;;;5022083;28;20096;-96
2022/04/12 14:01:34;;;;;;;19.85;11.82;;;;;;;;;;5019636;28;20042;-94
2022/04/12 14:04:14;;;;;;;18.48;11.60;;;;;;;;;;5002766;28;20045;-96
2022/04/12 14:06:40;;;;;;;17.73;11.07;;;;;;;;;;5002596;28;20558;-94
2022/04/12 14:09:09;;;;;;;20.00;11.07;;;;;;;;;;5019372;28;20056;-94
2022/04/12 14:11:45;;;;;;;18.38;11.85;;;;;;;;;;5020821;28;20052;-94
2022/04/12 14:14:32;;;;;;;17.92;11.23;;;;;;;;;;5022855;28;20045;-95
2022/04/12 14:16:58;;;;;;;18.95;11.18;;;;;;;;;;5024309;28;20144;-93
2022/04/12 14:19:24;;;;;;;20.17;11.88;;;;;;;;;;5001827;28;20041;-94
2022/04/12 14:21:50;;;;;;;19.52;11.73;;;;;;;;;;5003249;28;20053;-93
2022/04/12 14:24:18;;;;;;;18.17;11.45;;;;;;;;;;5003330;28;20076;-94
2022/04/12 14:26:44;;;;;;;16.75;10.90;;;;;;;;;;5020737;28;20111;-93
2022/04/12 14:29:10;;;;;;;20.38;11.40;;;;;;;;;;5020871;28;20109;-96
2022/04/12 14:31:42;;;;;;;23.67;12.15;;;;;;;;;;5020221;28;20511;-93
2022/04/12 14:34:08;;;;;;;23.20;12.20;;;;;;;;;;5005340;28;20436;-94
2022/04/12 14:36:35;;;;;;;18.50;11.15;;;;;;;;;;5019273;28;20397;-94
2022/04/12 14:39:21;;;;;;;20.42;11.98;;;;;;;;;;5007408;28;20103;-93
2022/04/12 14:41:47;;;;;;;20.00;11.57;;;;;;;;;;5024770;28;20084;-94
2022/04/12 14:44:16;;;;;;;17.90;10.68;;;;;;;;;;5022322;28;20064;-93
2022/04/12 14:46:45;;;;;;;18.30;10.73;;;;;;;;;;5007084;28;20046;-93
2022/04/12 14:49:13;;;;;;;20.23;11.38;;;;;;;;;;5021294;28;20050;-94
2022/04/12 14:51:39;;;;;;;18.40;11.57;;;;;;;;;;5021467;28;20045;-95
2022/04/12 14:54:06;;;;;;;18.55;11.65;;;;;;;;;;5000857;28;20095;-94
2022/04/12 14:56:33;;;;;;;21.33;11.18;;;;;;;;;;5002466;28;20408;-93
2022/04/12 14:59:01;;;;;;;20.83;11.77;;;;;;;;;;5018389;28;20404;-94
2022/04/12 15:01:27;;;;;;;19.63;11.48;;;;;;;;;;5021137;28;20103;-94
2022/04/12 15:03:53;;;;;;;21.42;12.68;;;;;;;;;;5001732;28;20037;-94
2022/04/12 15:06:22;;;;;;;22.40;11.82;;;;;;;;;;5018683;28;20092;-94
2022/04/12 15:08:48;;;;;;;20.27;11.45;;;;;;;;;;5004081;28;20038;-94
2022/04/12 15:11:14;;;;;;;21.33;11.63;;;;;;;;;;5018324;28;20033;-93
2022/04/12 15:13:40;;;;;;;21.65;11.50;;;;;;;;;;5002845;28;20041;-94
2022/04/12 15:16:15;;;;;;;18.65;10.35;;;;;;;;;;5017717;28;20068;-94
2022/04/12 15:18:41;;;;;;;17.60;11.50;;;;;;;;;;5023031;28;20064;-93
2022/04/12 15:21:13;;;;;;;20.20;11.48;;;;;;;;;;5009038;28;20045;-94
2022/04/12 15:23:39;;;;;;;17.90;10.98;;;;;;;;;;5006873;28;20038;-94
2022/04/12 15:26:05;;;;;;;19.58;11.15;;;;;;;;;;5007486;28;20041;-95
2022/04/12 15:31:34;;;;;;;17.58;10.05;;;;;;;;;;5032262;28;20041;-96
2022/04/12 15:34:11;;;;;;;14.90;9.20;;;;;;;;;;5008868;28;20543;-95
2022/04/12 15:39:06;;;;;;;16.40;10.35;;;;;;;;;;5188091;23;20122;-94
2022/04/12 15:41:32;;;;;;;18.10;10.07;;;;;;;;;;4995564;28;20485;-94
2022/04/12 15:43:58;;;;;;;16.75;9.35;;;;;;;;;;4995786;28;20042;-94